sensor_id;sensor_type;location;lat;lon;timestamp;P1;durP1;ratioP1;P2;durP2;ratioP2
22287;SDS011;11312;51.464;6.968;2022-12-18T00:01:57;15.52;;;7.65;;
22287;SDS011;11312;51.464;6.968;2022-12-18T00:04:24;13.98;;;7.30;;
22287;SDS011;11312;51.464;6.968;2022-12-18T00:06:51;13.18;;;7.07;;
22287;SDS011;11312;51.464;6.968;2022-12-18T00:09:17;16.30;;;8.10;;
22287;SDS011;11312;51.464;6.968;2022-12-18T00:11:43;13.07;;;6.88;;
22287;SDS011;11312;51.464;6.968;2022-12-18T00:14:10;14.13;;;8.55;;
22287;SDS011;11312;51.464;6.968;2022-12-18T00:16:37;12.45;;;7.68;;
22287;SDS011;11312;51.464;6.968;2022-12-18T00:19:03;11.45;;;6.28;;
22287;SDS011;11312;51.464;6.968;2022-12-18T00:21:29;18.92;;;8.73;;
22287;SDS011;11312;51.464;6.968;2022-12-18T00:23:56;15.40;;;7.25;;
22287;SDS011;11312;51.464;6.968;2022-12-18T00:26:23;16.65;;;7.50;;
22287;SDS011;11312;51.464;6.968;2022-12-18T00:28:51;17.80;;;9.77;;
22287;SDS011;11312;51.464;6.968;2022-12-18T00:31:18;15.90;;;7.65;;
22287;SDS011;11312;51.464;6.968;2022-12-18T00:33:45;15.80;;;9.80;;
22287;SDS011;11312;51.464;6.968;2022-12-18T00:36:18;13.32;;;7.47;;
22287;SDS011;11312;51.464;6.968;2022-12-18T00:38:45;17.83;;;7.93;;
22287;SDS011;11312;51.464;6.968;2022-12-18T00:41:12;13.30;;;7.63;;
22287;SDS011;11312;51.464;6.968;2022-12-18T00:43:59;13.82;;;7.63;;
22287;SDS011;11312;51.464;6.968;2022-12-18T00:46:25;13.70;;;8.38;;
22287;SDS011;11312;51.464;6.968;2022-12-18T00:48:51;13.15;;;7.60;;
22287;SDS011;11312;51.464;6.968;2022-12-18T00:51:16;14.20;;;8.77;;
22287;SDS011;11312;51.464;6.968;2022-12-18T00:53:42;14.57;;;8.23;;
22287;SDS011;11312;51.464;6.968;2022-12-18T00:56:08;20.88;;;8.90;;
22287;SDS011;11312;51.464;6.968;2022-12-18T00:58:33;12.25;;;7.32;;
22287;SDS011;11312;51.464;6.968;2022-12-18T01:00:59;12.50;;;7.32;;
22287;SDS011;11312;51.464;6.968;2022-12-18T01:03:24;14.05;;;8.13;;
22287;SDS011;11312;51.464;6.968;2022-12-18T01:05:50;14.82;;;8.50;;
22287;SDS011;11312;51.464;6.968;2022-12-18T01:08:16;11.35;;;6.13;;
22287;SDS011;11312;51.464;6.968;2022-12-18T01:10:41;23.25;;;9.43;;
22287;SDS011;11312;51.464;6.968;2022-12-18T01:13:07;15.10;;;8.68;;
22287;SDS011;11312;51.464;6.968;2022-12-18T01:15:32;15.57;;;8.38;;
22287;SDS011;11312;51.464;6.968;2022-12-18T01:17:58;14.98;;;8.30;;
22287;SDS011;11312;51.464;6.968;2022-12-18T01:20:24;11.13;;;5.43;;
22287;SDS011;11312;51.464;6.968;2022-12-18T01:22:49;16.63;;;9.10;;
22287;SDS011;11312;51.464;6.968;2022-12-18T01:25:15;13.07;;;7.15;;
22287;SDS011;11312;51.464;6.968;2022-12-18T01:27:41;11.70;;;6.00;;
22287;SDS011;11312;51.464;6.968;2022-12-18T01:30:06;13.40;;;7.75;;
22287;SDS011;11312;51.464;6.968;2022-12-18T01:32:32;13.95;;;8.45;;
22287;SDS011;11312;51.464;6.968;2022-12-18T01:34:58;15.25;;;8.57;;
22287;SDS011;11312;51.464;6.968;2022-12-18T01:37:24;13.32;;;8.20;;
22287;SDS011;11312;51.464;6.968;2022-12-18T01:39:49;13.23;;;7.70;;
22287;SDS011;11312;51.464;6.968;2022-12-18T01:42:17;16.15;;;7.38;;
22287;SDS011;11312;51.464;6.968;2022-12-18T01:44:56;14.98;;;8.77;;
22287;SDS011;11312;51.464;6.968;2022-12-18T01:50:08;12.52;;;7.60;;
22287;SDS011;11312;51.464;6.968;2022-12-18T01:52:42;14.85;;;9.10;;
22287;SDS011;11312;51.464;6.968;2022-12-18T01:55:11;13.70;;;8.82;;
22287;SDS011;11312;51.464;6.968;2022-12-18T01:57:39;20.08;;;8.63;;
22287;SDS011;11312;51.464;6.968;2022-12-18T02:00:07;15.77;;;8.07;;
22287;SDS011;11312;51.464;6.968;2022-12-18T02:02:39;13.18;;;7.13;;
22287;SDS011;11312;51.464;6.968;2022-12-18T02:05:07;19.38;;;9.30;;
22287;SDS011;11312;51.464;6.968;2022-12-18T02:07:45;13.82;;;8.45;;
22287;SDS011;11312;51.464;6.968;2022-12-18T02:10:31;17.77;;;7.43;;
22287;SDS011;11312;51.464;6.968;2022-12-18T02:13:13;12.55;;;7.15;;
22287;SDS011;11312;51.464;6.968;2022-12-18T02:18:59;12.13;;;7.50;;
22287;SDS011;11312;51.464;6.968;2022-12-18T02:26:44;14.38;;;8.65;;
22287;SDS011;11312;51.464;6.968;2022-12-18T02:29:37;12.90;;;7.32;;
22287;SDS011;11312;51.464;6.968;2022-12-18T02:32:10;14.45;;;8.32;;
22287;SDS011;11312;51.464;6.968;2022-12-18T02:34:40;16.67;;;9.18;;
22287;SDS011;11312;51.464;6.968;2022-12-18T02:37:07;17.85;;;9.68;;
22287;SDS011;11312;51.464;6.968;2022-12-18T02:39:37;17.77;;;10.15;;
22287;SDS011;11312;51.464;6.968;2022-12-18T02:42:05;11.32;;;5.18;;
22287;SDS011;11312;51.464;6.968;2022-12-18T02:44:47;16.02;;;9.52;;
22287;SDS011;11312;51.464;6.968;2022-12-18T02:47:15;15.70;;;11.00;;
22287;SDS011;11312;51.464;6.968;2022-12-18T02:49:55;13.30;;;7.55;;
22287;SDS011;11312;51.464;6.968;2022-12-18T02:55:28;14.45;;;6.82;;
22287;SDS011;11312;51.464;6.968;2022-12-18T03:00:37;14.75;;;8.32;;
22287;SDS011;11312;51.464;6.968;2022-12-18T03:03:19;15.55;;;9.00;;
22287;SDS011;11312;51.464;6.968;2022-12-18T03:10:48;17.08;;;9.73;;
22287;SDS011;11312;51.464;6.968;2022-12-18T03:13:41;18.80;;;9.38;;
22287;SDS011;11312;51.464;6.968;2022-12-18T03:16:09;13.00;;;7.68;;
22287;SDS011;11312;51.464;6.968;2022-12-18T03:21:06;20.85;;;9.48;;
22287;SDS011;11312;51.464;6.968;2022-12-18T03:23:34;15.18;;;8.18;;
22287;SDS011;11312;51.464;6.968;2022-12-18T03:26:06;16.85;;;8.90;;
22287;SDS011;11312;51.464;6.968;2022-12-18T03:28:40;17.45;;;8.90;;
22287;SDS011;11312;51.464;6.968;2022-12-18T03:31:11;13.45;;;8.18;;
22287;SDS011;11312;51.464;6.968;2022-12-18T03:33:43;14.00;;;8.75;;
22287;SDS011;11312;51.464;6.968;2022-12-18T03:36:18;14.20;;;9.48;;
22287;SDS011;11312;51.464;6.968;2022-12-18T03:38:44;13.35;;;8.32;;
22287;SDS011;11312;51.464;6.968;2022-12-18T03:43:48;14.38;;;7.05;;
22287;SDS011;11312;51.464;6.968;2022-12-18T03:49:05;12.82;;;7.80;;
22287;SDS011;11312;51.464;6.968;2022-12-18T03:51:43;25.70;;;8.93;;
22287;SDS011;11312;51.464;6.968;2022-12-18T03:54:34;24.95;;;7.75;;
22287;SDS011;11312;51.464;6.968;2022-12-18T03:57:04;14.32;;;7.53;;
22287;SDS011;11312;51.464;6.968;2022-12-18T03:59:34;11.32;;;5.35;;
22287;SDS011;11312;51.464;6.968;2022-12-18T04:02:01;17.05;;;8.38;;
22287;SDS011;11312;51.464;6.968;2022-12-18T04:04:30;11.85;;;6.55;;
22287;SDS011;11312;51.464;6.968;2022-12-18T04:06:57;17.67;;;10.20;;
22287;SDS011;11312;51.464;6.968;2022-12-18T04:09:23;15.05;;;6.82;;
22287;SDS011;11312;51.464;6.968;2022-12-18T04:11:51;14.55;;;9.90;;
22287;SDS011;11312;51.464;6.968;2022-12-18T04:14:17;11.60;;;6.20;;
22287;SDS011;11312;51.464;6.968;2022-12-18T04:16:42;14.32;;;7.43;;
22287;SDS011;11312;51.464;6.968;2022-12-18T04:19:08;14.40;;;8.55;;
22287;SDS011;11312;51.464;6.968;2022-12-18T04:21:34;18.30;;;8.10;;
22287;SDS011;11312;51.464;6.968;2022-12-18T04:23:59;23.35;;;7.25;;
22287;SDS011;11312;51.464;6.968;2022-12-18T04:26:25;21.80;;;8.88;;
22287;SDS011;11312;51.464;6.968;2022-12-18T04:28:50;17.63;;;9.88;;
22287;SDS011;11312;51.464;6.968;2022-12-18T04:31:16;13.52;;;5.97;;
22287;SDS011;11312;51.464;6.968;2022-12-18T04:33:41;15.23;;;8.05;;
22287;SDS011;11312;51.464;6.968;2022-12-18T04:36:07;15.90;;;9.43;;
22287;SDS011;11312;51.464;6.968;2022-12-18T04:38:33;17.80;;;8.68;;
22287;SDS011;11312;51.464;6.968;2022-12-18T04:40:58;12.18;;;7.20;;
22287;SDS011;11312;51.464;6.968;2022-12-18T04:43:24;12.57;;;6.68;;
22287;SDS011;11312;51.464;6.968;2022-12-18T04:45:49;13.18;;;8.27;;
22287;SDS011;11312;51.464;6.968;2022-12-18T04:48:15;14.90;;;9.65;;
22287;SDS011;11312;51.464;6.968;2022-12-18T04:50:41;17.27;;;8.82;;
22287;SDS011;11312;51.464;6.968;2022-12-18T04:53:06;11.75;;;6.97;;
22287;SDS011;11312;51.464;6.968;2022-12-18T04:55:32;12.07;;;7.03;;
22287;SDS011;11312;51.464;6.968;2022-12-18T04:57:57;12.05;;;6.93;;
22287;SDS011;11312;51.464;6.968;2022-12-18T05:00:23;16.00;;;7.47;;
22287;SDS011;11312;51.464;6.968;2022-12-18T05:02:49;20.33;;;8.48;;
22287;SDS011;11312;51.464;6.968;2022-12-18T05:05:14;11.30;;;6.78;;
22287;SDS011;11312;51.464;6.968;2022-12-18T05:07:40;12.63;;;7.05;;
22287;SDS011;11312;51.464;6.968;2022-12-18T05:10:06;15.27;;;9.23;;
22287;SDS011;11312;51.464;6.968;2022-12-18T05:12:32;11.50;;;6.00;;
22287;SDS011;11312;51.464;6.968;2022-12-18T05:14:58;14.20;;;8.55;;
22287;SDS011;11312;51.464;6.968;2022-12-18T05:17:23;16.65;;;9.65;;
22287;SDS011;11312;51.464;6.968;2022-12-18T05:19:49;13.30;;;8.60;;
22287;SDS011;11312;51.464;6.968;2022-12-18T05:22:14;11.35;;;6.80;;
22287;SDS011;11312;51.464;6.968;2022-12-18T05:24:40;16.60;;;8.40;;
22287;SDS011;11312;51.464;6.968;2022-12-18T05:27:06;16.13;;;9.90;;
22287;SDS011;11312;51.464;6.968;2022-12-18T05:29:31;29.05;;;5.85;;
22287;SDS011;11312;51.464;6.968;2022-12-18T05:31:57;11.88;;;7.13;;
22287;SDS011;11312;51.464;6.968;2022-12-18T05:34:22;16.38;;;9.27;;
22287;SDS011;11312;51.464;6.968;2022-12-18T05:36:48;16.27;;;9.48;;
22287;SDS011;11312;51.464;6.968;2022-12-18T05:39:14;13.13;;;8.25;;
22287;SDS011;11312;51.464;6.968;2022-12-18T05:41:39;16.70;;;7.32;;
22287;SDS011;11312;51.464;6.968;2022-12-18T05:44:05;13.57;;;8.85;;
22287;SDS011;11312;51.464;6.968;2022-12-18T05:46:31;13.23;;;8.18;;
22287;SDS011;11312;51.464;6.968;2022-12-18T05:48:59;17.95;;;7.90;;
22287;SDS011;11312;51.464;6.968;2022-12-18T05:51:26;12.20;;;6.90;;
22287;SDS011;11312;51.464;6.968;2022-12-18T05:53:52;17.45;;;10.02;;
22287;SDS011;11312;51.464;6.968;2022-12-18T05:56:19;13.48;;;7.78;;
22287;SDS011;11312;51.464;6.968;2022-12-18T05:58:45;25.92;;;12.95;;
22287;SDS011;11312;51.464;6.968;2022-12-18T06:01:16;15.43;;;9.52;;
22287;SDS011;11312;51.464;6.968;2022-12-18T06:03:44;11.57;;;6.47;;
22287;SDS011;11312;51.464;6.968;2022-12-18T06:06:17;12.35;;;6.18;;
22287;SDS011;11312;51.464;6.968;2022-12-18T06:08:45;11.00;;;5.25;;
22287;SDS011;11312;51.464;6.968;2022-12-18T06:11:11;14.90;;;9.07;;
22287;SDS011;11312;51.464;6.968;2022-12-18T06:13:38;14.00;;;8.75;;
22287;SDS011;11312;51.464;6.968;2022-12-18T06:16:04;13.45;;;6.85;;
22287;SDS011;11312;51.464;6.968;2022-12-18T06:18:31;13.52;;;7.07;;
22287;SDS011;11312;51.464;6.968;2022-12-18T06:20:57;11.90;;;7.38;;
22287;SDS011;11312;51.464;6.968;2022-12-18T06:23:23;13.23;;;7.70;;
22287;SDS011;11312;51.464;6.968;2022-12-18T06:25:49;14.52;;;8.88;;
22287;SDS011;11312;51.464;6.968;2022-12-18T06:28:15;13.65;;;6.72;;
22287;SDS011;11312;51.464;6.968;2022-12-18T06:30:43;15.00;;;7.80;;
22287;SDS011;11312;51.464;6.968;2022-12-18T06:33:09;11.88;;;6.55;;
22287;SDS011;11312;51.464;6.968;2022-12-18T06:35:35;15.93;;;6.68;;
22287;SDS011;11312;51.464;6.968;2022-12-18T06:38:01;11.30;;;6.03;;
22287;SDS011;11312;51.464;6.968;2022-12-18T06:40:27;15.93;;;6.88;;
22287;SDS011;11312;51.464;6.968;2022-12-18T06:42:53;12.30;;;6.88;;
22287;SDS011;11312;51.464;6.968;2022-12-18T06:45:19;12.80;;;8.15;;
22287;SDS011;11312;51.464;6.968;2022-12-18T06:47:44;20.10;;;8.95;;
22287;SDS011;11312;51.464;6.968;2022-12-18T06:50:10;12.45;;;6.75;;
22287;SDS011;11312;51.464;6.968;2022-12-18T06:52:36;12.38;;;7.00;;
22287;SDS011;11312;51.464;6.968;2022-12-18T06:55:02;17.60;;;9.65;;
22287;SDS011;11312;51.464;6.968;2022-12-18T06:57:28;15.45;;;7.22;;
22287;SDS011;11312;51.464;6.968;2022-12-18T06:59:53;13.68;;;6.53;;
22287;SDS011;11312;51.464;6.968;2022-12-18T07:02:19;13.38;;;6.82;;
22287;SDS011;11312;51.464;6.968;2022-12-18T07:04:45;14.18;;;8.88;;
22287;SDS011;11312;51.464;6.968;2022-12-18T07:07:10;15.18;;;7.15;;
22287;SDS011;11312;51.464;6.968;2022-12-18T07:09:36;19.48;;;7.63;;
22287;SDS011;11312;51.464;6.968;2022-12-18T07:12:02;12.73;;;6.75;;
22287;SDS011;11312;51.464;6.968;2022-12-18T07:14:27;11.25;;;6.68;;
22287;SDS011;11312;51.464;6.968;2022-12-18T07:16:53;12.30;;;7.53;;
22287;SDS011;11312;51.464;6.968;2022-12-18T07:19:19;12.35;;;6.50;;
22287;SDS011;11312;51.464;6.968;2022-12-18T07:21:44;12.68;;;6.93;;
22287;SDS011;11312;51.464;6.968;2022-12-18T07:24:10;13.25;;;8.30;;
22287;SDS011;11312;51.464;6.968;2022-12-18T07:26:35;13.63;;;7.68;;
22287;SDS011;11312;51.464;6.968;2022-12-18T07:29:01;12.20;;;7.28;;
22287;SDS011;11312;51.464;6.968;2022-12-18T07:31:27;16.08;;;6.90;;
22287;SDS011;11312;51.464;6.968;2022-12-18T07:33:52;11.98;;;6.55;;
22287;SDS011;11312;51.464;6.968;2022-12-18T07:36:19;12.90;;;6.80;;
22287;SDS011;11312;51.464;6.968;2022-12-18T07:38:46;17.10;;;7.90;;
22287;SDS011;11312;51.464;6.968;2022-12-18T07:41:13;15.27;;;7.60;;
22287;SDS011;11312;51.464;6.968;2022-12-18T07:43:39;17.08;;;7.72;;
22287;SDS011;11312;51.464;6.968;2022-12-18T07:46:06;11.55;;;6.47;;
22287;SDS011;11312;51.464;6.968;2022-12-18T07:48:33;14.57;;;7.07;;
22287;SDS011;11312;51.464;6.968;2022-12-18T07:50:59;19.13;;;7.47;;
22287;SDS011;11312;51.464;6.968;2022-12-18T07:53:26;10.15;;;4.63;;
22287;SDS011;11312;51.464;6.968;2022-12-18T07:55:58;10.60;;;5.22;;
22287;SDS011;11312;51.464;6.968;2022-12-18T07:58:25;15.38;;;7.82;;
22287;SDS011;11312;51.464;6.968;2022-12-18T08:00:51;12.60;;;7.85;;
22287;SDS011;11312;51.464;6.968;2022-12-18T08:03:17;11.35;;;5.57;;
22287;SDS011;11312;51.464;6.968;2022-12-18T08:05:43;12.52;;;7.47;;
22287;SDS011;11312;51.464;6.968;2022-12-18T08:08:08;15.32;;;8.80;;
22287;SDS011;11312;51.464;6.968;2022-12-18T08:10:34;12.10;;;7.18;;
22287;SDS011;11312;51.464;6.968;2022-12-18T08:13:00;14.07;;;6.72;;
22287;SDS011;11312;51.464;6.968;2022-12-18T08:15:25;11.38;;;5.82;;
22287;SDS011;11312;51.464;6.968;2022-12-18T08:17:51;14.73;;;8.85;;
22287;SDS011;11312;51.464;6.968;2022-12-18T08:20:17;11.00;;;5.72;;
22287;SDS011;11312;51.464;6.968;2022-12-18T08:22:43;14.40;;;8.10;;
22287;SDS011;11312;51.464;6.968;2022-12-18T08:25:09;14.20;;;6.00;;
22287;SDS011;11312;51.464;6.968;2022-12-18T08:27:35;11.77;;;6.53;;
22287;SDS011;11312;51.464;6.968;2022-12-18T08:30:02;13.02;;;8.30;;
22287;SDS011;11312;51.464;6.968;2022-12-18T08:32:28;11.02;;;5.93;;
22287;SDS011;11312;51.464;6.968;2022-12-18T08:34:54;12.05;;;6.50;;
22287;SDS011;11312;51.464;6.968;2022-12-18T08:37:19;15.02;;;8.15;;
22287;SDS011;11312;51.464;6.968;2022-12-18T08:39:45;12.90;;;8.02;;
22287;SDS011;11312;51.464;6.968;2022-12-18T08:42:11;14.05;;;7.50;;
22287;SDS011;11312;51.464;6.968;2022-12-18T08:44:55;12.38;;;6.28;;
22287;SDS011;11312;51.464;6.968;2022-12-18T08:47:21;12.48;;;6.72;;
22287;SDS011;11312;51.464;6.968;2022-12-18T08:49:46;15.45;;;7.80;;
22287;SDS011;11312;51.464;6.968;2022-12-18T08:52:12;10.38;;;5.53;;
22287;SDS011;11312;51.464;6.968;2022-12-18T08:54:37;11.98;;;6.38;;
22287;SDS011;11312;51.464;6.968;2022-12-18T08:57:03;23.10;;;9.25;;
22287;SDS011;11312;51.464;6.968;2022-12-18T08:59:29;9.75;;;4.78;;
22287;SDS011;11312;51.464;6.968;2022-12-18T09:01:54;12.77;;;7.82;;
22287;SDS011;11312;51.464;6.968;2022-12-18T09:04:20;12.02;;;6.65;;
22287;SDS011;11312;51.464;6.968;2022-12-18T09:06:46;17.30;;;8.40;;
22287;SDS011;11312;51.464;6.968;2022-12-18T09:09:12;13.07;;;6.90;;
22287;SDS011;11312;51.464;6.968;2022-12-18T09:11:38;11.32;;;6.70;;
22287;SDS011;11312;51.464;6.968;2022-12-18T09:14:03;13.00;;;7.43;;
22287;SDS011;11312;51.464;6.968;2022-12-18T09:16:29;11.85;;;7.38;;
22287;SDS011;11312;51.464;6.968;2022-12-18T09:18:56;12.73;;;7.97;;
22287;SDS011;11312;51.464;6.968;2022-12-18T09:21:27;11.65;;;6.15;;
22287;SDS011;11312;51.464;6.968;2022-12-18T09:23:55;12.52;;;7.38;;
22287;SDS011;11312;51.464;6.968;2022-12-18T09:26:21;14.65;;;7.10;;
22287;SDS011;11312;51.464;6.968;2022-12-18T09:28:48;11.98;;;5.53;;
22287;SDS011;11312;51.464;6.968;2022-12-18T09:31:14;11.45;;;5.70;;
22287;SDS011;11312;51.464;6.968;2022-12-18T09:33:40;9.00;;;3.85;;
22287;SDS011;11312;51.464;6.968;2022-12-18T09:36:07;11.45;;;5.72;;
22287;SDS011;11312;51.464;6.968;2022-12-18T09:38:35;9.80;;;4.10;;
22287;SDS011;11312;51.464;6.968;2022-12-18T09:50:02;11.02;;;5.55;;
22287;SDS011;11312;51.464;6.968;2022-12-18T09:52:39;10.65;;;5.57;;
22287;SDS011;11312;51.464;6.968;2022-12-18T10:00:35;10.80;;;5.28;;
22287;SDS011;11312;51.464;6.968;2022-12-18T10:03:09;14.95;;;6.18;;
22287;SDS011;11312;51.464;6.968;2022-12-18T10:05:42;10.18;;;5.65;;
22287;SDS011;11312;51.464;6.968;2022-12-18T10:11:03;9.32;;;4.18;;
22287;SDS011;11312;51.464;6.968;2022-12-18T10:13:48;10.95;;;5.90;;
22287;SDS011;11312;51.464;6.968;2022-12-18T10:16:35;11.35;;;6.07;;
22287;SDS011;11312;51.464;6.968;2022-12-18T10:19:15;9.88;;;4.63;;
22287;SDS011;11312;51.464;6.968;2022-12-18T10:24:33;11.10;;;5.18;;
22287;SDS011;11312;51.464;6.968;2022-12-18T10:27:12;11.40;;;6.10;;
22287;SDS011;11312;51.464;6.968;2022-12-18T10:29:40;12.77;;;6.18;;
22287;SDS011;11312;51.464;6.968;2022-12-18T10:32:08;12.23;;;7.45;;
22287;SDS011;11312;51.464;6.968;2022-12-18T10:34:46;10.90;;;6.32;;
22287;SDS011;11312;51.464;6.968;2022-12-18T10:37:17;10.75;;;5.25;;
22287;SDS011;11312;51.464;6.968;2022-12-18T10:39:45;9.40;;;4.53;;
22287;SDS011;11312;51.464;6.968;2022-12-18T10:42:29;11.48;;;6.43;;
22287;SDS011;11312;51.464;6.968;2022-12-18T10:45:01;13.80;;;6.57;;
22287;SDS011;11312;51.464;6.968;2022-12-18T10:47:42;11.23;;;5.05;;
22287;SDS011;11312;51.464;6.968;2022-12-18T10:50:17;11.85;;;5.70;;
22287;SDS011;11312;51.464;6.968;2022-12-18T10:53:01;10.10;;;4.20;;
22287;SDS011;11312;51.464;6.968;2022-12-18T10:55:33;10.70;;;5.53;;
22287;SDS011;11312;51.464;6.968;2022-12-18T11:01:14;9.70;;;4.63;;
22287;SDS011;11312;51.464;6.968;2022-12-18T11:06:11;11.02;;;6.03;;
22287;SDS011;11312;51.464;6.968;2022-12-18T11:08:39;11.25;;;5.45;;
22287;SDS011;11312;51.464;6.968;2022-12-18T11:11:13;8.65;;;4.05;;
22287;SDS011;11312;51.464;6.968;2022-12-18T11:13:52;11.32;;;5.65;;
22287;SDS011;11312;51.464;6.968;2022-12-18T11:16:29;8.75;;;3.97;;
22287;SDS011;11312;51.464;6.968;2022-12-18T11:19:40;10.98;;;4.40;;
22287;SDS011;11312;51.464;6.968;2022-12-18T11:21:47;11.20;;;5.45;;
22287;SDS011;11312;51.464;6.968;2022-12-18T11:24:19;10.02;;;4.95;;
22287;SDS011;11312;51.464;6.968;2022-12-18T11:26:48;11.55;;;4.70;;
22287;SDS011;11312;51.464;6.968;2022-12-18T11:29:18;10.77;;;4.93;;
22287;SDS011;11312;51.464;6.968;2022-12-18T11:31:48;11.35;;;4.95;;
22287;SDS011;11312;51.464;6.968;2022-12-18T11:34:16;11.65;;;5.80;;
22287;SDS011;11312;51.464;6.968;2022-12-18T11:36:51;10.23;;;4.80;;
22287;SDS011;11312;51.464;6.968;2022-12-18T11:39:20;9.57;;;4.13;;
22287;SDS011;11312;51.464;6.968;2022-12-18T11:41:54;13.70;;;5.43;;
22287;SDS011;11312;51.464;6.968;2022-12-18T11:44:46;11.45;;;5.50;;
22287;SDS011;11312;51.464;6.968;2022-12-18T11:49:54;8.48;;;3.80;;
22287;SDS011;11312;51.464;6.968;2022-12-18T11:52:26;10.32;;;3.92;;
22287;SDS011;11312;51.464;6.968;2022-12-18T11:54:54;9.63;;;4.18;;
22287;SDS011;11312;51.464;6.968;2022-12-18T11:57:41;11.73;;;5.20;;
22287;SDS011;11312;51.464;6.968;2022-12-18T12:00:15;8.43;;;3.42;;
22287;SDS011;11312;51.464;6.968;2022-12-18T12:07:51;11.70;;;5.07;;
22287;SDS011;11312;51.464;6.968;2022-12-18T12:10:41;10.60;;;4.85;;
22287;SDS011;11312;51.464;6.968;2022-12-18T12:21:39;9.52;;;4.20;;
22287;SDS011;11312;51.464;6.968;2022-12-18T12:38:05;16.05;;;4.22;;
22287;SDS011;11312;51.464;6.968;2022-12-18T12:40:36;10.25;;;5.00;;
22287;SDS011;11312;51.464;6.968;2022-12-18T12:43:12;13.90;;;5.07;;
22287;SDS011;11312;51.464;6.968;2022-12-18T12:46:07;9.25;;;4.25;;
22287;SDS011;11312;51.464;6.968;2022-12-18T12:51:20;11.68;;;6.05;;
22287;SDS011;11312;51.464;6.968;2022-12-18T12:53:49;10.38;;;4.20;;
22287;SDS011;11312;51.464;6.968;2022-12-18T12:56:16;10.13;;;4.85;;
22287;SDS011;11312;51.464;6.968;2022-12-18T13:01:23;11.82;;;6.00;;
22287;SDS011;11312;51.464;6.968;2022-12-18T13:07:01;9.02;;;3.67;;
22287;SDS011;11312;51.464;6.968;2022-12-18T13:09:32;11.00;;;5.10;;
22287;SDS011;11312;51.464;6.968;2022-12-18T13:12:10;10.75;;;5.38;;
22287;SDS011;11312;51.464;6.968;2022-12-18T13:15:01;7.03;;;2.85;;
22287;SDS011;11312;51.464;6.968;2022-12-18T13:17:47;8.13;;;3.50;;
22287;SDS011;11312;51.464;6.968;2022-12-18T13:20:14;8.70;;;3.58;;
22287;SDS011;11312;51.464;6.968;2022-12-18T13:22:44;7.70;;;2.83;;
22287;SDS011;11312;51.464;6.968;2022-12-18T13:30:42;8.95;;;4.35;;
22287;SDS011;11312;51.464;6.968;2022-12-18T13:40:57;6.13;;;2.40;;
22287;SDS011;11312;51.464;6.968;2022-12-18T13:43:24;5.90;;;2.40;;
22287;SDS011;11312;51.464;6.968;2022-12-18T13:46:27;7.80;;;3.30;;
22287;SDS011;11312;51.464;6.968;2022-12-18T13:51:38;7.35;;;3.15;;
22287;SDS011;11312;51.464;6.968;2022-12-18T13:54:17;6.43;;;2.53;;
22287;SDS011;11312;51.464;6.968;2022-12-18T13:56:45;7.88;;;3.33;;
22287;SDS011;11312;51.464;6.968;2022-12-18T13:59:13;6.50;;;2.55;;
22287;SDS011;11312;51.464;6.968;2022-12-18T14:01:52;7.05;;;3.13;;
22287;SDS011;11312;51.464;6.968;2022-12-18T14:04:29;7.55;;;2.95;;
22287;SDS011;11312;51.464;6.968;2022-12-18T14:06:58;7.55;;;3.20;;
22287;SDS011;11312;51.464;6.968;2022-12-18T14:09:29;13.02;;;5.00;;
22287;SDS011;11312;51.464;6.968;2022-12-18T14:11:59;7.70;;;3.13;;
22287;SDS011;11312;51.464;6.968;2022-12-18T14:14:45;7.90;;;3.25;;
22287;SDS011;11312;51.464;6.968;2022-12-18T14:17:13;6.07;;;2.42;;
22287;SDS011;11312;51.464;6.968;2022-12-18T14:19:41;7.22;;;2.85;;
22287;SDS011;11312;51.464;6.968;2022-12-18T14:22:13;8.82;;;3.83;;
22287;SDS011;11312;51.464;6.968;2022-12-18T14:24:45;7.85;;;3.00;;
22287;SDS011;11312;51.464;6.968;2022-12-18T14:27:24;7.15;;;2.90;;
22287;SDS011;11312;51.464;6.968;2022-12-18T14:29:51;7.63;;;3.33;;
22287;SDS011;11312;51.464;6.968;2022-12-18T14:32:18;8.32;;;3.70;;
22287;SDS011;11312;51.464;6.968;2022-12-18T14:34:45;10.00;;;3.38;;
22287;SDS011;11312;51.464;6.968;2022-12-18T14:37:21;7.57;;;3.05;;
22287;SDS011;11312;51.464;6.968;2022-12-18T14:39:55;8.70;;;3.55;;
22287;SDS011;11312;51.464;6.968;2022-12-18T14:42:23;12.20;;;3.60;;
22287;SDS011;11312;51.464;6.968;2022-12-18T14:45:10;8.95;;;3.97;;
22287;SDS011;11312;51.464;6.968;2022-12-18T14:47:56;6.90;;;2.70;;
22287;SDS011;11312;51.464;6.968;2022-12-18T14:50:23;8.02;;;3.20;;
22287;SDS011;11312;51.464;6.968;2022-12-18T14:52:49;9.93;;;3.63;;
22287;SDS011;11312;51.464;6.968;2022-12-18T14:55:16;6.13;;;2.50;;
22287;SDS011;11312;51.464;6.968;2022-12-18T14:57:43;10.52;;;3.88;;
22287;SDS011;11312;51.464;6.968;2022-12-18T15:00:16;7.07;;;2.78;;
22287;SDS011;11312;51.464;6.968;2022-12-18T15:02:45;7.20;;;2.95;;
22287;SDS011;11312;51.464;6.968;2022-12-18T15:07:39;9.32;;;4.15;;
22287;SDS011;11312;51.464;6.968;2022-12-18T15:10:13;8.48;;;3.50;;
22287;SDS011;11312;51.464;6.968;2022-12-18T15:12:45;7.35;;;2.88;;
22287;SDS011;11312;51.464;6.968;2022-12-18T15:18:02;7.57;;;3.28;;
22287;SDS011;11312;51.464;6.968;2022-12-18T15:20:31;17.95;;;5.40;;
22287;SDS011;11312;51.464;6.968;2022-12-18T15:23:04;7.18;;;3.08;;
22287;SDS011;11312;51.464;6.968;2022-12-18T15:25:36;9.35;;;3.17;;
22287;SDS011;11312;51.464;6.968;2022-12-18T15:28:03;12.40;;;3.78;;
22287;SDS011;11312;51.464;6.968;2022-12-18T15:30:40;6.93;;;2.72;;
22287;SDS011;11312;51.464;6.968;2022-12-18T15:33:31;10.05;;;3.63;;
22287;SDS011;11312;51.464;6.968;2022-12-18T15:36:00;8.70;;;3.92;;
22287;SDS011;11312;51.464;6.968;2022-12-18T15:38:27;7.68;;;2.78;;
22287;SDS011;11312;51.464;6.968;2022-12-18T15:40:53;6.93;;;2.85;;
22287;SDS011;11312;51.464;6.968;2022-12-18T15:43:22;7.32;;;2.90;;
22287;SDS011;11312;51.464;6.968;2022-12-18T15:45:58;6.90;;;3.05;;
22287;SDS011;11312;51.464;6.968;2022-12-18T15:48:48;7.43;;;2.97;;
22287;SDS011;11312;51.464;6.968;2022-12-18T15:51:29;7.90;;;2.95;;
22287;SDS011;11312;51.464;6.968;2022-12-18T15:54:02;7.82;;;3.63;;
22287;SDS011;11312;51.464;6.968;2022-12-18T15:56:29;7.85;;;3.08;;
22287;SDS011;11312;51.464;6.968;2022-12-18T15:59:15;12.23;;;3.88;;
22287;SDS011;11312;51.464;6.968;2022-12-18T16:01:43;8.43;;;3.67;;
22287;SDS011;11312;51.464;6.968;2022-12-18T16:04:12;9.38;;;3.80;;
22287;SDS011;11312;51.464;6.968;2022-12-18T16:06:39;9.30;;;3.28;;
22287;SDS011;11312;51.464;6.968;2022-12-18T16:09:06;8.13;;;3.28;;
22287;SDS011;11312;51.464;6.968;2022-12-18T16:11:32;7.50;;;3.03;;
22287;SDS011;11312;51.464;6.968;2022-12-18T16:16:45;6.70;;;2.58;;
22287;SDS011;11312;51.464;6.968;2022-12-18T16:19:12;8.20;;;3.53;;
22287;SDS011;11312;51.464;6.968;2022-12-18T16:21:39;8.82;;;3.47;;
22287;SDS011;11312;51.464;6.968;2022-12-18T16:24:04;7.25;;;3.15;;
22287;SDS011;11312;51.464;6.968;2022-12-18T16:26:30;7.93;;;3.50;;
22287;SDS011;11312;51.464;6.968;2022-12-18T16:28:56;10.45;;;3.67;;
22287;SDS011;11312;51.464;6.968;2022-12-18T16:31:22;6.65;;;2.67;;
22287;SDS011;11312;51.464;6.968;2022-12-18T16:33:47;6.47;;;2.58;;
22287;SDS011;11312;51.464;6.968;2022-12-18T16:36:13;7.60;;;3.20;;
22287;SDS011;11312;51.464;6.968;2022-12-18T16:38:39;9.05;;;3.38;;
22287;SDS011;11312;51.464;6.968;2022-12-18T16:41:14;7.50;;;2.88;;
22287;SDS011;11312;51.464;6.968;2022-12-18T16:43:56;6.68;;;2.58;;
22287;SDS011;11312;51.464;6.968;2022-12-18T16:46:22;7.80;;;3.35;;
22287;SDS011;11312;51.464;6.968;2022-12-18T16:48:47;11.82;;;4.32;;
22287;SDS011;11312;51.464;6.968;2022-12-18T16:51:13;7.45;;;3.05;;